sensor_id;sensor_type;location;lat;lon;timestamp;P1;durP1;ratioP1;P2;durP2;ratioP2
76136;SDS011;68622;53.128;17.966;2023-11-18T00:01:32;18.80;;;9.00;;
76136;SDS011;68622;53.128;17.966;2023-11-18T00:04:00;22.60;;;9.60;;
76136;SDS011;68622;53.128;17.966;2023-11-18T00:06:27;19.60;;;9.20;;
76136;SDS011;68622;53.128;17.966;2023-11-18T00:08:53;23.00;;;10.10;;
76136;SDS011;68622;53.128;17.966;2023-11-18T00:11:19;17.30;;;9.00;;
76136;SDS011;68622;53.128;17.966;2023-11-18T00:13:46;19.20;;;9.70;;
76136;SDS011;68622;53.128;17.966;2023-11-18T00:16:12;20.80;;;10.40;;
76136;SDS011;68622;53.128;17.966;2023-11-18T00:18:39;21.90;;;9.90;;
76136;SDS011;68622;53.128;17.966;2023-11-18T00:21:05;23.40;;;10.90;;
76136;SDS011;68622;53.128;17.966;2023-11-18T00:23:35;21.50;;;10.70;;
76136;SDS011;68622;53.128;17.966;2023-11-18T00:26:02;21.80;;;9.80;;
76136;SDS011;68622;53.128;17.966;2023-11-18T00:28:28;19.50;;;9.80;;
76136;SDS011;68622;53.128;17.966;2023-11-18T00:30:54;20.80;;;10.50;;
76136;SDS011;68622;53.128;17.966;2023-11-18T00:33:20;21.40;;;10.70;;
76136;SDS011;68622;53.128;17.966;2023-11-18T00:35:47;24.20;;;11.70;;
76136;SDS011;68622;53.128;17.966;2023-11-18T00:38:13;23.60;;;11.00;;
76136;SDS011;68622;53.128;17.966;2023-11-18T00:40:39;23.60;;;10.80;;
76136;SDS011;68622;53.128;17.966;2023-11-18T00:43:05;21.40;;;10.00;;
76136;SDS011;68622;53.128;17.966;2023-11-18T00:45:31;20.40;;;10.10;;
76136;SDS011;68622;53.128;17.966;2023-11-18T00:47:57;21.90;;;10.20;;
76136;SDS011;68622;53.128;17.966;2023-11-18T00:50:23;25.30;;;12.60;;
76136;SDS011;68622;53.128;17.966;2023-11-18T00:52:49;26.10;;;13.00;;
76136;SDS011;68622;53.128;17.966;2023-11-18T00:55:15;23.90;;;11.00;;
76136;SDS011;68622;53.128;17.966;2023-11-18T00:57:46;21.90;;;10.90;;
76136;SDS011;68622;53.128;17.966;2023-11-18T01:00:13;25.80;;;11.50;;
76136;SDS011;68622;53.128;17.966;2023-11-18T01:02:42;22.30;;;11.10;;
76136;SDS011;68622;53.128;17.966;2023-11-18T01:05:09;22.30;;;10.40;;
76136;SDS011;68622;53.128;17.966;2023-11-18T01:07:37;22.30;;;10.30;;
76136;SDS011;68622;53.128;17.966;2023-11-18T01:10:04;25.00;;;11.90;;
76136;SDS011;68622;53.128;17.966;2023-11-18T01:12:32;21.80;;;11.40;;
76136;SDS011;68622;53.128;17.966;2023-11-18T01:14:58;21.70;;;10.00;;
76136;SDS011;68622;53.128;17.966;2023-11-18T01:17:23;23.40;;;10.90;;
76136;SDS011;68622;53.128;17.966;2023-11-18T01:19:49;25.20;;;11.20;;
76136;SDS011;68622;53.128;17.966;2023-11-18T01:22:15;24.60;;;12.60;;
76136;SDS011;68622;53.128;17.966;2023-11-18T01:27:52;24.10;;;11.40;;
76136;SDS011;68622;53.128;17.966;2023-11-18T01:30:18;25.70;;;11.50;;
76136;SDS011;68622;53.128;17.966;2023-11-18T01:32:44;27.80;;;12.20;;
76136;SDS011;68622;53.128;17.966;2023-11-18T01:35:10;26.90;;;12.80;;
76136;SDS011;68622;53.128;17.966;2023-11-18T01:37:36;25.00;;;12.10;;
76136;SDS011;68622;53.128;17.966;2023-11-18T01:40:02;25.00;;;12.00;;
76136;SDS011;68622;53.128;17.966;2023-11-18T01:42:32;23.30;;;11.70;;
76136;SDS011;68622;53.128;17.966;2023-11-18T01:44:59;26.00;;;11.30;;
76136;SDS011;68622;53.128;17.966;2023-11-18T01:47:29;28.50;;;12.10;;
76136;SDS011;68622;53.128;17.966;2023-11-18T01:49:58;25.80;;;12.30;;
76136;SDS011;68622;53.128;17.966;2023-11-18T01:52:26;26.30;;;12.30;;
76136;SDS011;68622;53.128;17.966;2023-11-18T01:54:55;25.80;;;12.40;;
76136;SDS011;68622;53.128;17.966;2023-11-18T01:57:21;26.40;;;11.90;;
76136;SDS011;68622;53.128;17.966;2023-11-18T01:59:48;23.80;;;11.60;;
76136;SDS011;68622;53.128;17.966;2023-11-18T02:02:14;25.30;;;12.20;;
76136;SDS011;68622;53.128;17.966;2023-11-18T02:04:40;28.70;;;13.10;;
76136;SDS011;68622;53.128;17.966;2023-11-18T02:07:08;26.00;;;11.60;;
76136;SDS011;68622;53.128;17.966;2023-11-18T02:09:34;26.70;;;12.50;;
76136;SDS011;68622;53.128;17.966;2023-11-18T02:14:46;25.10;;;11.90;;
76136;SDS011;68622;53.128;17.966;2023-11-18T02:17:15;29.40;;;12.80;;
76136;SDS011;68622;53.128;17.966;2023-11-18T02:19:45;27.60;;;12.30;;
76136;SDS011;68622;53.128;17.966;2023-11-18T02:22:12;26.70;;;12.10;;
76136;SDS011;68622;53.128;17.966;2023-11-18T02:24:39;27.40;;;12.60;;
76136;SDS011;68622;53.128;17.966;2023-11-18T02:27:06;29.50;;;12.60;;
76136;SDS011;68622;53.128;17.966;2023-11-18T02:29:34;25.30;;;11.90;;
76136;SDS011;68622;53.128;17.966;2023-11-18T02:34:34;25.40;;;12.30;;
76136;SDS011;68622;53.128;17.966;2023-11-18T02:37:06;25.90;;;12.20;;
76136;SDS011;68622;53.128;17.966;2023-11-18T02:39:43;25.70;;;11.70;;
76136;SDS011;68622;53.128;17.966;2023-11-18T02:42:16;25.80;;;11.90;;
76136;SDS011;68622;53.128;17.966;2023-11-18T02:44:42;27.50;;;12.70;;
76136;SDS011;68622;53.128;17.966;2023-11-18T02:47:10;28.70;;;13.10;;
76136;SDS011;68622;53.128;17.966;2023-11-18T02:49:37;32.50;;;13.10;;
76136;SDS011;68622;53.128;17.966;2023-11-18T02:52:03;27.10;;;12.90;;
76136;SDS011;68622;53.128;17.966;2023-11-18T02:54:30;30.10;;;14.40;;
76136;SDS011;68622;53.128;17.966;2023-11-18T02:56:58;30.70;;;12.50;;
76136;SDS011;68622;53.128;17.966;2023-11-18T02:59:24;28.90;;;12.40;;
76136;SDS011;68622;53.128;17.966;2023-11-18T03:01:53;27.40;;;12.30;;
76136;SDS011;68622;53.128;17.966;2023-11-18T03:04:20;34.40;;;14.50;;
76136;SDS011;68622;53.128;17.966;2023-11-18T03:06:46;28.90;;;13.90;;
76136;SDS011;68622;53.128;17.966;2023-11-18T03:09:12;29.50;;;13.80;;
76136;SDS011;68622;53.128;17.966;2023-11-18T03:11:40;29.20;;;12.50;;
76136;SDS011;68622;53.128;17.966;2023-11-18T03:14:06;29.70;;;13.80;;
76136;SDS011;68622;53.128;17.966;2023-11-18T03:16:36;28.50;;;13.60;;
76136;SDS011;68622;53.128;17.966;2023-11-18T03:19:03;30.80;;;13.80;;
76136;SDS011;68622;53.128;17.966;2023-11-18T03:21:30;30.60;;;13.40;;
76136;SDS011;68622;53.128;17.966;2023-11-18T03:23:56;28.20;;;12.60;;
76136;SDS011;68622;53.128;17.966;2023-11-18T03:26:23;29.00;;;12.80;;
76136;SDS011;68622;53.128;17.966;2023-11-18T03:28:49;30.00;;;13.40;;
76136;SDS011;68622;53.128;17.966;2023-11-18T03:31:15;27.80;;;13.00;;
76136;SDS011;68622;53.128;17.966;2023-11-18T03:33:41;29.00;;;13.90;;
76136;SDS011;68622;53.128;17.966;2023-11-18T03:36:07;26.90;;;12.50;;
76136;SDS011;68622;53.128;17.966;2023-11-18T03:38:34;25.20;;;11.90;;
76136;SDS011;68622;53.128;17.966;2023-11-18T03:41:00;27.80;;;12.60;;
76136;SDS011;68622;53.128;17.966;2023-11-18T03:43:26;28.10;;;12.00;;
76136;SDS011;68622;53.128;17.966;2023-11-18T03:45:53;27.50;;;12.80;;
76136;SDS011;68622;53.128;17.966;2023-11-18T03:48:22;28.50;;;12.80;;
76136;SDS011;68622;53.128;17.966;2023-11-18T03:50:49;28.30;;;13.00;;
76136;SDS011;68622;53.128;17.966;2023-11-18T03:53:16;30.00;;;13.50;;
76136;SDS011;68622;53.128;17.966;2023-11-18T03:55:42;29.10;;;13.20;;
76136;SDS011;68622;53.128;17.966;2023-11-18T03:58:08;29.30;;;12.80;;
76136;SDS011;68622;53.128;17.966;2023-11-18T04:00:34;25.90;;;11.90;;
76136;SDS011;68622;53.128;17.966;2023-11-18T04:03:00;30.90;;;12.10;;
76136;SDS011;68622;53.128;17.966;2023-11-18T04:05:26;27.70;;;13.20;;
76136;SDS011;68622;53.128;17.966;2023-11-18T04:07:52;26.90;;;11.90;;
76136;SDS011;68622;53.128;17.966;2023-11-18T04:10:18;30.90;;;13.30;;
76136;SDS011;68622;53.128;17.966;2023-11-18T04:12:45;29.90;;;12.10;;
76136;SDS011;68622;53.128;17.966;2023-11-18T04:15:14;29.00;;;12.50;;
76136;SDS011;68622;53.128;17.966;2023-11-18T04:17:41;26.30;;;11.60;;
76136;SDS011;68622;53.128;17.966;2023-11-18T04:20:07;25.90;;;10.90;;
76136;SDS011;68622;53.128;17.966;2023-11-18T04:22:43;27.50;;;12.10;;
76136;SDS011;68622;53.128;17.966;2023-11-18T04:25:10;27.30;;;11.20;;
76136;SDS011;68622;53.128;17.966;2023-11-18T04:27:37;25.40;;;11.90;;
76136;SDS011;68622;53.128;17.966;2023-11-18T04:30:04;24.80;;;11.60;;
76136;SDS011;68622;53.128;17.966;2023-11-18T04:32:31;28.80;;;12.30;;
76136;SDS011;68622;53.128;17.966;2023-11-18T04:34:59;27.40;;;12.40;;
76136;SDS011;68622;53.128;17.966;2023-11-18T04:37:33;25.70;;;11.40;;
76136;SDS011;68622;53.128;17.966;2023-11-18T04:40:00;25.30;;;12.20;;
76136;SDS011;68622;53.128;17.966;2023-11-18T04:42:30;28.40;;;11.60;;
76136;SDS011;68622;53.128;17.966;2023-11-18T04:44:56;26.10;;;11.00;;
76136;SDS011;68622;53.128;17.966;2023-11-18T04:47:23;27.80;;;12.30;;
76136;SDS011;68622;53.128;17.966;2023-11-18T04:49:51;25.30;;;11.40;;
76136;SDS011;68622;53.128;17.966;2023-11-18T04:52:17;24.50;;;10.90;;
76136;SDS011;68622;53.128;17.966;2023-11-18T04:54:44;23.70;;;10.90;;
76136;SDS011;68622;53.128;17.966;2023-11-18T04:57:10;25.50;;;11.00;;
76136;SDS011;68622;53.128;17.966;2023-11-18T04:59:36;27.80;;;11.70;;
76136;SDS011;68622;53.128;17.966;2023-11-18T05:02:02;28.00;;;12.00;;
76136;SDS011;68622;53.128;17.966;2023-11-18T05:04:28;22.00;;;10.60;;
76136;SDS011;68622;53.128;17.966;2023-11-18T05:06:56;26.80;;;11.40;;
76136;SDS011;68622;53.128;17.966;2023-11-18T05:09:22;25.90;;;11.40;;
76136;SDS011;68622;53.128;17.966;2023-11-18T05:11:48;26.60;;;11.50;;
76136;SDS011;68622;53.128;17.966;2023-11-18T05:14:14;27.10;;;11.30;;
76136;SDS011;68622;53.128;17.966;2023-11-18T05:16:42;25.60;;;12.20;;
76136;SDS011;68622;53.128;17.966;2023-11-18T05:19:08;26.40;;;11.50;;
76136;SDS011;68622;53.128;17.966;2023-11-18T05:21:34;26.50;;;11.90;;
76136;SDS011;68622;53.128;17.966;2023-11-18T05:24:00;23.00;;;10.70;;
76136;SDS011;68622;53.128;17.966;2023-11-18T05:26:26;25.90;;;12.10;;
76136;SDS011;68622;53.128;17.966;2023-11-18T05:28:52;25.00;;;11.30;;
76136;SDS011;68622;53.128;17.966;2023-11-18T05:31:20;24.30;;;10.90;;
76136;SDS011;68622;53.128;17.966;2023-11-18T05:33:46;25.90;;;11.60;;
76136;SDS011;68622;53.128;17.966;2023-11-18T05:36:17;26.70;;;12.90;;
76136;SDS011;68622;53.128;17.966;2023-11-18T05:38:52;23.60;;;12.10;;
76136;SDS011;68622;53.128;17.966;2023-11-18T05:41:18;24.20;;;11.80;;
76136;SDS011;68622;53.128;17.966;2023-11-18T05:43:56;26.30;;;11.50;;
76136;SDS011;68622;53.128;17.966;2023-11-18T05:46:25;24.80;;;12.30;;
76136;SDS011;68622;53.128;17.966;2023-11-18T05:48:55;24.30;;;11.90;;
76136;SDS011;68622;53.128;17.966;2023-11-18T05:51:22;27.00;;;10.90;;
76136;SDS011;68622;53.128;17.966;2023-11-18T05:53:49;23.80;;;10.20;;
76136;SDS011;68622;53.128;17.966;2023-11-18T05:56:17;22.40;;;10.40;;
76136;SDS011;68622;53.128;17.966;2023-11-18T05:58:45;24.50;;;10.60;;
76136;SDS011;68622;53.128;17.966;2023-11-18T06:01:11;23.10;;;10.70;;
76136;SDS011;68622;53.128;17.966;2023-11-18T06:03:38;23.70;;;11.80;;
76136;SDS011;68622;53.128;17.966;2023-11-18T06:06:06;23.70;;;10.30;;
76136;SDS011;68622;53.128;17.966;2023-11-18T06:08:37;24.50;;;10.80;;
76136;SDS011;68622;53.128;17.966;2023-11-18T06:11:14;23.40;;;10.70;;
76136;SDS011;68622;53.128;17.966;2023-11-18T06:13:42;23.80;;;10.20;;
76136;SDS011;68622;53.128;17.966;2023-11-18T06:16:12;24.40;;;10.70;;
76136;SDS011;68622;53.128;17.966;2023-11-18T06:18:43;24.70;;;11.50;;
76136;SDS011;68622;53.128;17.966;2023-11-18T06:21:10;24.50;;;10.50;;
76136;SDS011;68622;53.128;17.966;2023-11-18T06:23:43;23.60;;;10.90;;
76136;SDS011;68622;53.128;17.966;2023-11-18T06:26:11;22.20;;;9.50;;
76136;SDS011;68622;53.128;17.966;2023-11-18T06:28:38;25.70;;;12.70;;
76136;SDS011;68622;53.128;17.966;2023-11-18T06:31:05;24.80;;;11.20;;
76136;SDS011;68622;53.128;17.966;2023-11-18T06:33:44;24.30;;;11.60;;
76136;SDS011;68622;53.128;17.966;2023-11-18T06:38:40;25.70;;;11.50;;
76136;SDS011;68622;53.128;17.966;2023-11-18T06:41:06;25.30;;;11.70;;
76136;SDS011;68622;53.128;17.966;2023-11-18T06:43:38;22.10;;;10.40;;
76136;SDS011;68622;53.128;17.966;2023-11-18T06:46:29;23.40;;;10.10;;
76136;SDS011;68622;53.128;17.966;2023-11-18T06:48:59;21.70;;;10.00;;
76136;SDS011;68622;53.128;17.966;2023-11-18T06:51:30;23.00;;;9.60;;
76136;SDS011;68622;53.128;17.966;2023-11-18T06:54:00;24.00;;;11.10;;
76136;SDS011;68622;53.128;17.966;2023-11-18T06:56:34;32.50;;;13.60;;
76136;SDS011;68622;53.128;17.966;2023-11-18T06:59:05;29.60;;;13.10;;
76136;SDS011;68622;53.128;17.966;2023-11-18T07:01:33;28.40;;;12.90;;
76136;SDS011;68622;53.128;17.966;2023-11-18T07:03:59;27.30;;;11.30;;
76136;SDS011;68622;53.128;17.966;2023-11-18T07:06:25;26.30;;;11.50;;
76136;SDS011;68622;53.128;17.966;2023-11-18T07:08:52;27.30;;;11.60;;
76136;SDS011;68622;53.128;17.966;2023-11-18T07:11:20;29.40;;;12.70;;
76136;SDS011;68622;53.128;17.966;2023-11-18T07:13:47;26.00;;;11.10;;
76136;SDS011;68622;53.128;17.966;2023-11-18T07:16:15;32.50;;;13.80;;
76136;SDS011;68622;53.128;17.966;2023-11-18T07:18:41;30.10;;;14.30;;
76136;SDS011;68622;53.128;17.966;2023-11-18T07:21:10;34.30;;;14.90;;
76136;SDS011;68622;53.128;17.966;2023-11-18T07:23:36;35.70;;;15.00;;
76136;SDS011;68622;53.128;17.966;2023-11-18T07:26:02;28.70;;;12.00;;
76136;SDS011;68622;53.128;17.966;2023-11-18T07:28:31;25.50;;;12.30;;
76136;SDS011;68622;53.128;17.966;2023-11-18T07:30:57;22.20;;;10.60;;
76136;SDS011;68622;53.128;17.966;2023-11-18T07:33:25;24.50;;;10.50;;
76136;SDS011;68622;53.128;17.966;2023-11-18T07:35:51;22.80;;;10.70;;
76136;SDS011;68622;53.128;17.966;2023-11-18T07:38:18;27.50;;;12.40;;
76136;SDS011;68622;53.128;17.966;2023-11-18T07:40:46;22.70;;;10.30;;
76136;SDS011;68622;53.128;17.966;2023-11-18T07:43:13;24.90;;;11.40;;
76136;SDS011;68622;53.128;17.966;2023-11-18T07:45:42;26.90;;;11.50;;
76136;SDS011;68622;53.128;17.966;2023-11-18T07:48:09;25.50;;;10.80;;
76136;SDS011;68622;53.128;17.966;2023-11-18T07:50:37;22.80;;;10.40;;
76136;SDS011;68622;53.128;17.966;2023-11-18T07:53:07;23.70;;;10.30;;
76136;SDS011;68622;53.128;17.966;2023-11-18T07:55:34;23.50;;;10.30;;
76136;SDS011;68622;53.128;17.966;2023-11-18T07:58:00;24.30;;;11.70;;
76136;SDS011;68622;53.128;17.966;2023-11-18T08:00:27;25.90;;;10.90;;
76136;SDS011;68622;53.128;17.966;2023-11-18T08:02:59;25.40;;;11.30;;
76136;SDS011;68622;53.128;17.966;2023-11-18T08:05:26;24.20;;;10.40;;
76136;SDS011;68622;53.128;17.966;2023-11-18T08:07:53;23.90;;;10.60;;
76136;SDS011;68622;53.128;17.966;2023-11-18T08:10:19;24.50;;;10.60;;
76136;SDS011;68622;53.128;17.966;2023-11-18T08:12:47;26.00;;;11.80;;
76136;SDS011;68622;53.128;17.966;2023-11-18T08:15:13;24.30;;;12.00;;
76136;SDS011;68622;53.128;17.966;2023-11-18T08:17:39;25.00;;;11.90;;
76136;SDS011;68622;53.128;17.966;2023-11-18T08:20:06;23.10;;;11.30;;
76136;SDS011;68622;53.128;17.966;2023-11-18T08:22:42;25.70;;;12.50;;
76136;SDS011;68622;53.128;17.966;2023-11-18T08:25:12;22.80;;;10.70;;
76136;SDS011;68622;53.128;17.966;2023-11-18T08:27:39;27.90;;;12.10;;
76136;SDS011;68622;53.128;17.966;2023-11-18T08:30:06;27.50;;;10.70;;
76136;SDS011;68622;53.128;17.966;2023-11-18T08:32:37;24.20;;;11.00;;
76136;SDS011;68622;53.128;17.966;2023-11-18T08:35:07;23.20;;;9.70;;
76136;SDS011;68622;53.128;17.966;2023-11-18T08:37:36;26.60;;;11.20;;
76136;SDS011;68622;53.128;17.966;2023-11-18T08:40:03;21.00;;;9.50;;
76136;SDS011;68622;53.128;17.966;2023-11-18T08:42:33;21.30;;;9.30;;
76136;SDS011;68622;53.128;17.966;2023-11-18T08:45:00;22.90;;;10.10;;
76136;SDS011;68622;53.128;17.966;2023-11-18T08:47:26;26.10;;;10.90;;
76136;SDS011;68622;53.128;17.966;2023-11-18T08:49:53;23.40;;;10.40;;
76136;SDS011;68622;53.128;17.966;2023-11-18T08:52:20;22.30;;;10.20;;
76136;SDS011;68622;53.128;17.966;2023-11-18T08:54:46;24.40;;;11.30;;
76136;SDS011;68622;53.128;17.966;2023-11-18T08:57:38;21.60;;;9.40;;
76136;SDS011;68622;53.128;17.966;2023-11-18T09:00:24;21.60;;;9.50;;
76136;SDS011;68622;53.128;17.966;2023-11-18T09:03:10;27.80;;;11.00;;
76136;SDS011;68622;53.128;17.966;2023-11-18T09:05:44;23.60;;;11.20;;
76136;SDS011;68622;53.128;17.966;2023-11-18T09:11:10;26.50;;;12.30;;
76136;SDS011;68622;53.128;17.966;2023-11-18T09:13:44;25.70;;;12.40;;
76136;SDS011;68622;53.128;17.966;2023-11-18T09:16:19;26.50;;;12.60;;
76136;SDS011;68622;53.128;17.966;2023-11-18T09:18:55;26.60;;;11.80;;
76136;SDS011;68622;53.128;17.966;2023-11-18T09:21:24;28.40;;;12.30;;
76136;SDS011;68622;53.128;17.966;2023-11-18T09:23:54;26.00;;;10.60;;
76136;SDS011;68622;53.128;17.966;2023-11-18T09:26:22;25.60;;;10.90;;
76136;SDS011;68622;53.128;17.966;2023-11-18T09:28:48;27.60;;;12.60;;
76136;SDS011;68622;53.128;17.966;2023-11-18T09:31:15;22.60;;;10.60;;
76136;SDS011;68622;53.128;17.966;2023-11-18T09:33:42;25.30;;;11.30;;
76136;SDS011;68622;53.128;17.966;2023-11-18T09:36:17;23.70;;;11.70;;
76136;SDS011;68622;53.128;17.966;2023-11-18T09:38:44;22.10;;;10.80;;
76136;SDS011;68622;53.128;17.966;2023-11-18T09:41:13;23.80;;;11.00;;
76136;SDS011;68622;53.128;17.966;2023-11-18T09:43:44;23.70;;;11.60;;
76136;SDS011;68622;53.128;17.966;2023-11-18T09:46:17;21.80;;;10.50;;
76136;SDS011;68622;53.128;17.966;2023-11-18T09:48:50;21.50;;;10.70;;
76136;SDS011;68622;53.128;17.966;2023-11-18T09:51:26;21.90;;;10.80;;
76136;SDS011;68622;53.128;17.966;2023-11-18T09:53:59;22.60;;;10.20;;
76136;SDS011;68622;53.128;17.966;2023-11-18T09:56:38;26.80;;;11.30;;
76136;SDS011;68622;53.128;17.966;2023-11-18T09:59:25;22.90;;;10.90;;
76136;SDS011;68622;53.128;17.966;2023-11-18T10:02:08;23.90;;;10.70;;
76136;SDS011;68622;53.128;17.966;2023-11-18T10:04:39;23.20;;;11.80;;
76136;SDS011;68622;53.128;17.966;2023-11-18T10:07:06;25.50;;;12.40;;
76136;SDS011;68622;53.128;17.966;2023-11-18T10:09:33;25.80;;;11.50;;
76136;SDS011;68622;53.128;17.966;2023-11-18T10:12:08;19.80;;;9.40;;
76136;SDS011;68622;53.128;17.966;2023-11-18T10:14:34;24.90;;;9.50;;
76136;SDS011;68622;53.128;17.966;2023-11-18T10:17:04;24.60;;;9.50;;
76136;SDS011;68622;53.128;17.966;2023-11-18T10:19:50;22.00;;;9.70;;
76136;SDS011;68622;53.128;17.966;2023-11-18T10:22:26;17.90;;;8.40;;
76136;SDS011;68622;53.128;17.966;2023-11-18T10:24:53;15.80;;;8.20;;
76136;SDS011;68622;53.128;17.966;2023-11-18T10:27:21;14.90;;;7.80;;
76136;SDS011;68622;53.128;17.966;2023-11-18T10:29:54;18.50;;;9.40;;
76136;SDS011;68622;53.128;17.966;2023-11-18T10:32:21;16.60;;;8.70;;
76136;SDS011;68622;53.128;17.966;2023-11-18T10:34:56;16.90;;;8.70;;
76136;SDS011;68622;53.128;17.966;2023-11-18T10:37:24;20.20;;;8.20;;
76136;SDS011;68622;53.128;17.966;2023-11-18T10:39:51;14.40;;;6.80;;
76136;SDS011;68622;53.128;17.966;2023-11-18T10:42:18;13.30;;;5.90;;
76136;SDS011;68622;53.128;17.966;2023-11-18T10:44:55;14.00;;;6.00;;
76136;SDS011;68622;53.128;17.966;2023-11-18T10:47:25;23.40;;;8.70;;
76136;SDS011;68622;53.128;17.966;2023-11-18T10:49:52;19.80;;;9.20;;
76136;SDS011;68622;53.128;17.966;2023-11-18T10:52:24;22.50;;;10.30;;
76136;SDS011;68622;53.128;17.966;2023-11-18T10:55:00;21.10;;;9.60;;
76136;SDS011;68622;53.128;17.966;2023-11-18T10:57:36;19.60;;;8.40;;
76136;SDS011;68622;53.128;17.966;2023-11-18T11:00:05;21.90;;;9.30;;
76136;SDS011;68622;53.128;17.966;2023-11-18T11:02:44;17.30;;;6.20;;
76136;SDS011;68622;53.128;17.966;2023-11-18T11:05:18;21.30;;;7.10;;
76136;SDS011;68622;53.128;17.966;2023-11-18T11:07:58;16.70;;;7.90;;
76136;SDS011;68622;53.128;17.966;2023-11-18T11:10:31;14.20;;;5.70;;
76136;SDS011;68622;53.128;17.966;2023-11-18T11:12:58;13.80;;;6.00;;
76136;SDS011;68622;53.128;17.966;2023-11-18T11:15:30;16.20;;;6.60;;
76136;SDS011;68622;53.128;17.966;2023-11-18T11:18:04;18.60;;;8.50;;
76136;SDS011;68622;53.128;17.966;2023-11-18T11:26:26;19.20;;;8.30;;
76136;SDS011;68622;53.128;17.966;2023-11-18T11:34:49;18.20;;;7.80;;
76136;SDS011;68622;53.128;17.966;2023-11-18T11:37:19;12.10;;;5.50;;
76136;SDS011;68622;53.128;17.966;2023-11-18T11:39:50;12.30;;;5.80;;
76136;SDS011;68622;53.128;17.966;2023-11-18T11:42:20;17.20;;;7.60;;
76136;SDS011;68622;53.128;17.966;2023-11-18T11:44:47;12.70;;;5.60;;
76136;SDS011;68622;53.128;17.966;2023-11-18T11:47:14;23.70;;;7.80;;
76136;SDS011;68622;53.128;17.966;2023-11-18T11:49:44;16.40;;;6.10;;
76136;SDS011;68622;53.128;17.966;2023-11-18T11:52:19;11.40;;;5.30;;
76136;SDS011;68622;53.128;17.966;2023-11-18T11:55:09;12.50;;;5.60;;
76136;SDS011;68622;53.128;17.966;2023-11-18T11:57:50;16.40;;;6.80;;
76136;SDS011;68622;53.128;17.966;2023-11-18T12:00:19;13.70;;;6.50;;
76136;SDS011;68622;53.128;17.966;2023-11-18T12:02:52;13.80;;;6.50;;
76136;SDS011;68622;53.128;17.966;2023-11-18T12:05:25;13.80;;;6.10;;
76136;SDS011;68622;53.128;17.966;2023-11-18T12:07:52;12.60;;;5.30;;
76136;SDS011;68622;53.128;17.966;2023-11-18T12:10:31;12.10;;;5.20;;
76136;SDS011;68622;53.128;17.966;2023-11-18T12:13:06;11.20;;;4.40;;
76136;SDS011;68622;53.128;17.966;2023-11-18T12:15:47;10.40;;;4.60;;
76136;SDS011;68622;53.128;17.966;2023-11-18T12:18:13;11.60;;;4.90;;
76136;SDS011;68622;53.128;17.966;2023-11-18T12:20:40;11.80;;;5.10;;
76136;SDS011;68622;53.128;17.966;2023-11-18T12:23:08;11.20;;;5.10;;
76136;SDS011;68622;53.128;17.966;2023-11-18T12:25:40;14.20;;;5.80;;
76136;SDS011;68622;53.128;17.966;2023-11-18T12:28:08;16.00;;;7.50;;
76136;SDS011;68622;53.128;17.966;2023-11-18T12:33:03;13.30;;;5.50;;
76136;SDS011;68622;53.128;17.966;2023-11-18T12:44:19;15.60;;;6.90;;
76136;SDS011;68622;53.128;17.966;2023-11-18T12:47:00;17.00;;;6.20;;
76136;SDS011;68622;53.128;17.966;2023-11-18T12:49:38;16.80;;;7.20;;
76136;SDS011;68622;53.128;17.966;2023-11-18T12:52:08;18.10;;;6.70;;
76136;SDS011;68622;53.128;17.966;2023-11-18T12:54:35;14.30;;;6.50;;
76136;SDS011;68622;53.128;17.966;2023-11-18T12:57:12;15.40;;;7.10;;
76136;SDS011;68622;53.128;17.966;2023-11-18T12:59:41;16.00;;;7.10;;
76136;SDS011;68622;53.128;17.966;2023-11-18T13:02:07;14.50;;;6.10;;
76136;SDS011;68622;53.128;17.966;2023-11-18T13:04:41;15.80;;;6.30;;
76136;SDS011;68622;53.128;17.966;2023-11-18T13:07:07;16.40;;;7.00;;
76136;SDS011;68622;53.128;17.966;2023-11-18T13:09:37;15.00;;;7.00;;
76136;SDS011;68622;53.128;17.966;2023-11-18T13:12:04;14.80;;;6.30;;
76136;SDS011;68622;53.128;17.966;2023-11-18T13:14:31;14.00;;;6.40;;
76136;SDS011;68622;53.128;17.966;2023-11-18T13:17:04;17.50;;;6.60;;
76136;SDS011;68622;53.128;17.966;2023-11-18T13:19:34;14.20;;;5.90;;
76136;SDS011;68622;53.128;17.966;2023-11-18T13:22:01;16.20;;;6.10;;
76136;SDS011;68622;53.128;17.966;2023-11-18T13:24:35;15.80;;;6.00;;
76136;SDS011;68622;53.128;17.966;2023-11-18T13:27:05;18.30;;;6.40;;
76136;SDS011;68622;53.128;17.966;2023-11-18T13:29:33;14.30;;;6.10;;
76136;SDS011;68622;53.128;17.966;2023-11-18T13:32:02;15.50;;;6.60;;
76136;SDS011;68622;53.128;17.966;2023-11-18T13:34:29;16.50;;;6.60;;
76136;SDS011;68622;53.128;17.966;2023-11-18T13:36:58;13.70;;;6.50;;
76136;SDS011;68622;53.128;17.966;2023-11-18T13:39:26;17.40;;;7.40;;
76136;SDS011;68622;53.128;17.966;2023-11-18T13:41:57;17.10;;;7.20;;
76136;SDS011;68622;53.128;17.966;2023-11-18T13:44:36;16.80;;;6.70;;
76136;SDS011;68622;53.128;17.966;2023-11-18T13:47:05;15.90;;;7.00;;
76136;SDS011;68622;53.128;17.966;2023-11-18T13:49:31;17.30;;;7.70;;
76136;SDS011;68622;53.128;17.966;2023-11-18T13:52:01;16.90;;;7.30;;
76136;SDS011;68622;53.128;17.966;2023-11-18T13:54:28;15.30;;;6.90;;
76136;SDS011;68622;53.128;17.966;2023-11-18T13:56:56;15.90;;;7.10;;
76136;SDS011;68622;53.128;17.966;2023-11-18T13:59:24;17.70;;;7.00;;
76136;SDS011;68622;53.128;17.966;2023-11-18T14:01:55;19.30;;;10.40;;
76136;SDS011;68622;53.128;17.966;2023-11-18T14:04:23;15.70;;;7.20;;
76136;SDS011;68622;53.128;17.966;2023-11-18T14:06:51;19.30;;;8.10;;
76136;SDS011;68622;53.128;17.966;2023-11-18T14:09:18;15.70;;;6.40;;
76136;SDS011;68622;53.128;17.966;2023-11-18T14:11:47;15.90;;;6.60;;
76136;SDS011;68622;53.128;17.966;2023-11-18T14:14:14;15.70;;;6.80;;
76136;SDS011;68622;53.128;17.966;2023-11-18T14:16:40;14.20;;;6.40;;
76136;SDS011;68622;53.128;17.966;2023-11-18T14:19:06;17.30;;;6.60;;
76136;SDS011;68622;53.128;17.966;2023-11-18T14:21:33;17.60;;;6.80;;
76136;SDS011;68622;53.128;17.966;2023-11-18T14:23:59;18.00;;;7.20;;
76136;SDS011;68622;53.128;17.966;2023-11-18T14:26:29;18.20;;;8.10;;
76136;SDS011;68622;53.128;17.966;2023-11-18T14:28:56;24.30;;;9.20;;
76136;SDS011;68622;53.128;17.966;2023-11-18T14:31:24;16.60;;;7.40;;
76136;SDS011;68622;53.128;17.966;2023-11-18T14:33:51;19.70;;;7.70;;
76136;SDS011;68622;53.128;17.966;2023-11-18T14:36:18;18.20;;;7.70;;
76136;SDS011;68622;53.128;17.966;2023-11-18T14:38:44;23.30;;;7.80;;
76136;SDS011;68622;53.128;17.966;2023-11-18T14:41:12;20.50;;;9.10;;
76136;SDS011;68622;53.128;17.966;2023-11-18T14:43:42;23.90;;;8.70;;
76136;SDS011;68622;53.128;17.966;2023-11-18T14:46:07;23.10;;;10.30;;
76136;SDS011;68622;53.128;17.966;2023-11-18T14:48:34;23.90;;;11.00;;
76136;SDS011;68622;53.128;17.966;2023-11-18T14:51:00;33.20;;;11.60;;
76136;SDS011;68622;53.128;17.966;2023-11-18T14:53:26;26.20;;;11.50;;
76136;SDS011;68622;53.128;17.966;2023-11-18T14:55:52;28.00;;;11.90;;
76136;SDS011;68622;53.128;17.966;2023-11-18T14:58:19;28.80;;;12.50;;
76136;SDS011;68622;53.128;17.966;2023-11-18T15:00:51;27.20;;;11.20;;